createdAt,value
2017-04-27T00:09:01.010Z,0
2017-04-27T00:19:00.973Z,0
2017-04-27T00:29:00.991Z,0
2017-04-27T00:39:01.088Z,0
2017-04-27T00:49:00.960Z,0
2017-04-27T00:59:00.989Z,0
2017-04-27T01:09:00.977Z,0
2017-04-27T01:19:00.950Z,0
2017-04-27T01:29:00.947Z,0
2017-04-27T01:39:00.997Z,0
2017-04-27T01:49:01.003Z,0
2017-04-27T01:59:00.940Z,0
2017-04-27T02:09:00.981Z,0
2017-04-27T02:19:00.993Z,0
2017-04-27T02:29:00.940Z,0
2017-04-27T02:39:00.956Z,0
2017-04-27T02:49:01.052Z,0
2017-04-27T02:59:01.034Z,0
2017-04-27T03:09:01.011Z,0
2017-04-27T03:19:00.916Z,0
2017-04-27T03:29:00.913Z,0
2017-04-27T03:39:00.976Z,12
2017-04-27T03:49:00.917Z,36
2017-04-27T03:59:00.937Z,116
2017-04-27T04:09:00.915Z,296
2017-04-27T04:19:00.948Z,592
2017-04-27T04:29:00.985Z,984
2017-04-27T04:39:00.948Z,1956
2017-04-27T04:49:00.923Z,3428
2017-04-27T04:59:00.999Z,3368
2017-04-27T05:09:00.945Z,2780
2017-04-27T05:19:01.012Z,3552
2017-04-27T05:29:00.899Z,4064
2017-04-27T05:39:00.924Z,5112
2017-04-27T05:49:00.883Z,6512
2017-04-27T05:59:00.976Z,4160
2017-04-27T06:09:00.900Z,4240
2017-04-27T06:19:01.010Z,4324
2017-04-27T06:29:00.922Z,4396
2017-04-27T06:39:00.941Z,4664
2017-04-27T06:49:00.889Z,4872
2017-04-27T06:59:00.890Z,5656
2017-04-27T07:09:00.970Z,8228
2017-04-27T07:19:00.892Z,45344
2017-04-27T07:29:00.877Z,60800
2017-04-27T07:39:00.919Z,73376
2017-04-27T07:49:00.888Z,75328
2017-04-27T07:59:01.102Z,11372
2017-04-27T08:09:00.919Z,50208
2017-04-27T08:19:00.893Z,73120
2017-04-27T08:29:00.963Z,66816
2017-04-27T08:39:00.926Z,56288
2017-04-27T08:49:01.009Z,9984
2017-04-27T08:59:00.977Z,12480
2017-04-27T09:09:01.017Z,8544
2017-04-27T09:19:00.918Z,8756
2017-04-27T09:29:00.954Z,6232
2017-04-27T09:39:00.994Z,7852
2017-04-27T09:49:00.887Z,11168
2017-04-27T09:59:00.933Z,11740
2017-04-27T10:09:00.922Z,12812
2017-04-27T10:19:00.970Z,13748
2017-04-27T10:29:01.024Z,13988
2017-04-27T10:39:00.975Z,8816
2017-04-27T10:49:00.950Z,6444
2017-04-27T10:59:00.986Z,7848
2017-04-27T11:09:00.951Z,5916
2017-04-27T11:19:00.909Z,7080
2017-04-27T11:29:00.982Z,11228
2017-04-27T11:39:01.429Z,9896
2017-04-27T11:49:00.911Z,5272
2017-04-27T11:59:00.963Z,7236
2017-04-27T12:09:00.957Z,12996
2017-04-27T12:19:01.013Z,10244
2017-04-27T12:29:01.012Z,11080
2017-04-27T12:39:01.112Z,7124
2017-04-27T12:49:00.939Z,11432
2017-04-27T12:59:00.937Z,9844
2017-04-27T13:09:01.001Z,11908
2017-04-27T13:19:00.973Z,10356
2017-04-27T13:29:00.936Z,9552
2017-04-27T13:39:00.915Z,10700
2017-04-27T13:49:00.942Z,11108
2017-04-27T13:59:00.946Z,8660
2017-04-27T14:09:01.082Z,7140
2017-04-27T14:19:00.921Z,5320
2017-04-27T14:29:00.930Z,7024
2017-04-27T14:39:00.915Z,3548
2017-04-27T14:49:00.921Z,3596
2017-04-27T14:59:00.917Z,6668
2017-04-27T15:09:00.908Z,9000
2017-04-27T15:19:01.019Z,7048
2017-04-27T15:29:00.965Z,9288
2017-04-27T15:39:00.911Z,9648
2017-04-27T15:49:00.967Z,5940
2017-04-27T15:59:00.926Z,4188
2017-04-27T16:09:01.022Z,3644
2017-04-27T16:19:00.992Z,4076
2017-04-27T16:29:01.055Z,3272
2017-04-27T16:39:00.991Z,4508
2017-04-27T16:49:01.065Z,4308
2017-04-27T16:59:01.035Z,3156
2017-04-27T17:09:00.955Z,2752
2017-04-27T17:19:00.940Z,2800
2017-04-27T17:29:00.885Z,2876
2017-04-27T17:39:00.945Z,2480
2017-04-27T17:49:01.306Z,1832
2017-04-27T17:59:01.281Z,1340
2017-04-27T18:09:01.493Z,1088
2017-04-27T18:19:00.920Z,892
2017-04-27T18:29:01.290Z,644
2017-04-27T18:39:00.905Z,384
2017-04-27T18:49:00.901Z,160
2017-04-27T18:59:00.898Z,56
2017-04-27T19:09:01.055Z,16
2017-04-27T19:19:00.997Z,4
2017-04-27T19:29:01.073Z,4
2017-04-27T19:39:00.993Z,0
2017-04-27T19:49:00.975Z,0
2017-04-27T19:59:00.943Z,0
2017-04-27T20:09:00.954Z,0
2017-04-27T20:19:00.919Z,0
2017-04-27T20:29:00.880Z,0
2017-04-27T20:39:00.932Z,0
2017-04-27T20:49:00.911Z,0
2017-04-27T20:59:02.505Z,0
2017-04-27T21:09:01.042Z,4
2017-04-27T21:19:00.908Z,0
2017-04-27T21:29:01.022Z,0
2017-04-27T21:39:00.972Z,0
2017-04-27T21:49:00.907Z,0
2017-04-27T21:59:00.922Z,0
2017-04-27T22:09:00.886Z,0
2017-04-27T22:19:00.838Z,0
2017-04-27T22:29:00.942Z,0
2017-04-27T22:39:00.921Z,0
2017-04-27T22:49:00.937Z,0
2017-04-27T22:59:00.844Z,0
2017-04-27T23:09:00.850Z,0
2017-04-27T23:19:00.921Z,0
2017-04-27T23:29:00.868Z,0
2017-04-27T23:39:00.875Z,0
2017-04-27T23:49:00.888Z,0
2017-04-27T23:59:00.882Z,0
